sensor_id;sensor_type;location;lat;lon;timestamp;pressure;altitude;pressure_sealevel;temperature;humidity
3968;BME280;9221;42.646;23.380;2023-04-22T00:01:28;94194.56;;;10.13;78.06
3968;BME280;9221;42.646;23.380;2023-04-22T00:03:53;94220.53;;;10.35;78.06
3968;BME280;9221;42.646;23.380;2023-04-22T00:06:18;94223.22;;;10.16;78.01
3968;BME280;9221;42.646;23.380;2023-04-22T00:08:44;94126.50;;;9.66;77.89
3968;BME280;9221;42.646;23.380;2023-04-22T00:11:10;94212.06;;;10.23;77.50
3968;BME280;9221;42.646;23.380;2023-04-22T00:13:35;94137.25;;;9.81;77.21
3968;BME280;9221;42.646;23.380;2023-04-22T00:16:02;94239.88;;;10.17;77.25
3968;BME280;9221;42.646;23.380;2023-04-22T00:18:28;94186.47;;;10.07;77.08
3968;BME280;9221;42.646;23.380;2023-04-22T00:20:53;94186.25;;;10.00;77.68
3968;BME280;9221;42.646;23.380;2023-04-22T00:23:18;94211.34;;;10.12;77.52
3968;BME280;9221;42.646;23.380;2023-04-22T00:25:44;94133.72;;;9.64;77.30
3968;BME280;9221;42.646;23.380;2023-04-22T00:28:10;94201.97;;;9.83;77.76
3968;BME280;9221;42.646;23.380;2023-04-22T00:30:35;94179.78;;;9.60;78.12
3968;BME280;9221;42.646;23.380;2023-04-22T00:33:01;94242.84;;;9.70;78.83
3968;BME280;9221;42.646;23.380;2023-04-22T00:35:26;94068.81;;;8.94;78.64
3968;BME280;9221;42.646;23.380;2023-04-22T00:37:52;94189.88;;;9.73;78.43
3968;BME280;9221;42.646;23.380;2023-04-22T00:40:17;94189.50;;;9.86;77.91
3968;BME280;9221;42.646;23.380;2023-04-22T00:42:43;94196.00;;;9.73;77.75
3968;BME280;9221;42.646;23.380;2023-04-22T00:45:10;94187.19;;;9.91;77.37
3968;BME280;9221;42.646;23.380;2023-04-22T00:47:36;94161.41;;;9.68;77.54
3968;BME280;9221;42.646;23.380;2023-04-22T00:50:02;94193.50;;;9.98;77.16
3968;BME280;9221;42.646;23.380;2023-04-22T00:52:27;94191.84;;;9.97;77.45
3968;BME280;9221;42.646;23.380;2023-04-22T00:54:53;94237.28;;;9.99;77.39
3968;BME280;9221;42.646;23.380;2023-04-22T00:57:19;94194.63;;;9.95;77.67
3968;BME280;9221;42.646;23.380;2023-04-22T00:59:45;94197.78;;;9.99;77.54
3968;BME280;9221;42.646;23.380;2023-04-22T01:02:12;94249.47;;;10.00;77.62
3968;BME280;9221;42.646;23.380;2023-04-22T01:04:38;94265.19;;;9.83;77.72
3968;BME280;9221;42.646;23.380;2023-04-22T01:07:04;94243.88;;;10.03;77.60
3968;BME280;9221;42.646;23.380;2023-04-22T01:09:29;94154.53;;;9.75;76.72
3968;BME280;9221;42.646;23.380;2023-04-22T01:11:55;94186.16;;;9.83;77.13
3968;BME280;9221;42.646;23.380;2023-04-22T01:14:21;94148.78;;;9.54;77.03
3968;BME280;9221;42.646;23.380;2023-04-22T01:16:47;94144.94;;;9.40;76.64
3968;BME280;9221;42.646;23.380;2023-04-22T01:19:14;94138.34;;;9.18;77.41
3968;BME280;9221;42.646;23.380;2023-04-22T01:21:42;94157.66;;;9.26;77.75
3968;BME280;9221;42.646;23.380;2023-04-22T01:24:09;94253.13;;;9.55;78.01
3968;BME280;9221;42.646;23.380;2023-04-22T01:26:35;94255.16;;;9.25;79.06
3968;BME280;9221;42.646;23.380;2023-04-22T01:29:02;94142.75;;;8.55;79.44
3968;BME280;9221;42.646;23.380;2023-04-22T01:31:28;94229.00;;;9.23;79.48
3968;BME280;9221;42.646;23.380;2023-04-22T01:33:54;94218.81;;;9.46;79.04
3968;BME280;9221;42.646;23.380;2023-04-22T01:36:19;94096.09;;;8.57;78.64
3968;BME280;9221;42.646;23.380;2023-04-22T01:38:45;94220.44;;;9.39;79.51
3968;BME280;9221;42.646;23.380;2023-04-22T01:41:12;94126.13;;;8.90;79.27
3968;BME280;9221;42.646;23.380;2023-04-22T01:43:37;94220.13;;;9.42;78.83
3968;BME280;9221;42.646;23.380;2023-04-22T01:46:04;94216.06;;;9.30;79.45
3968;BME280;9221;42.646;23.380;2023-04-22T01:48:30;94252.75;;;9.13;80.24
3968;BME280;9221;42.646;23.380;2023-04-22T01:50:55;94222.97;;;8.95;81.44
3968;BME280;9221;42.646;23.380;2023-04-22T01:53:21;94185.53;;;8.65;81.79
3968;BME280;9221;42.646;23.380;2023-04-22T01:55:46;94249.56;;;8.92;82.42
3968;BME280;9221;42.646;23.380;2023-04-22T01:58:12;94143.78;;;8.62;82.70
3968;BME280;9221;42.646;23.380;2023-04-22T02:00:37;94210.66;;;9.13;82.91
3968;BME280;9221;42.646;23.380;2023-04-22T02:03:02;94213.69;;;9.19;82.36
3968;BME280;9221;42.646;23.380;2023-04-22T02:05:28;94033.25;;;8.09;82.11
3968;BME280;9221;42.646;23.380;2023-04-22T02:07:53;94204.50;;;9.23;82.16
3968;BME280;9221;42.646;23.380;2023-04-22T02:10:19;94248.22;;;9.24;82.39
3968;BME280;9221;42.646;23.380;2023-04-22T02:12:45;94168.13;;;9.00;82.46
3968;BME280;9221;42.646;23.380;2023-04-22T02:15:11;94207.19;;;8.95;82.83
3968;BME280;9221;42.646;23.380;2023-04-22T02:17:36;94215.09;;;8.95;83.18
3968;BME280;9221;42.646;23.380;2023-04-22T02:20:02;94198.22;;;8.52;83.65
3968;BME280;9221;42.646;23.380;2023-04-22T02:22:29;94199.75;;;8.72;83.84
3968;BME280;9221;42.646;23.380;2023-04-22T02:24:55;94150.69;;;8.63;83.61
3968;BME280;9221;42.646;23.380;2023-04-22T02:27:20;94142.59;;;8.74;83.45
3968;BME280;9221;42.646;23.380;2023-04-22T02:29:46;94158.34;;;8.92;82.88
3968;BME280;9221;42.646;23.380;2023-04-22T02:32:12;94049.56;;;8.03;82.96
3968;BME280;9221;42.646;23.380;2023-04-22T02:34:38;94251.47;;;9.00;82.26
3968;BME280;9221;42.646;23.380;2023-04-22T02:37:03;94159.47;;;8.72;82.53
3968;BME280;9221;42.646;23.380;2023-04-22T02:39:29;94219.91;;;9.00;81.92
3968;BME280;9221;42.646;23.380;2023-04-22T02:41:55;94203.59;;;8.96;81.59
3968;BME280;9221;42.646;23.380;2023-04-22T02:44:20;94264.16;;;9.04;82.04
3968;BME280;9221;42.646;23.380;2023-04-22T02:46:46;94168.88;;;8.92;81.33
3968;BME280;9221;42.646;23.380;2023-04-22T02:49:11;94335.22;;;9.22;81.50
3968;BME280;9221;42.646;23.380;2023-04-22T02:51:37;94216.16;;;9.02;81.32
3968;BME280;9221;42.646;23.380;2023-04-22T02:54:03;94158.91;;;8.60;81.61
3968;BME280;9221;42.646;23.380;2023-04-22T02:56:28;94161.78;;;8.57;82.45
3968;BME280;9221;42.646;23.380;2023-04-22T02:58:54;94167.22;;;8.73;81.65
3968;BME280;9221;42.646;23.380;2023-04-22T03:01:19;94175.94;;;8.92;81.13
3968;BME280;9221;42.646;23.380;2023-04-22T03:03:44;94274.53;;;9.24;81.15
3968;BME280;9221;42.646;23.380;2023-04-22T03:06:10;94176.91;;;8.91;80.91
3968;BME280;9221;42.646;23.380;2023-04-22T03:08:35;94271.25;;;9.22;80.92
3968;BME280;9221;42.646;23.380;2023-04-22T03:11:01;94197.75;;;9.02;81.00
3968;BME280;9221;42.646;23.380;2023-04-22T03:13:26;94115.09;;;8.51;80.44
3968;BME280;9221;42.646;23.380;2023-04-22T03:15:51;94175.19;;;8.81;80.88
3968;BME280;9221;42.646;23.380;2023-04-22T03:18:17;94226.44;;;9.13;81.56
3968;BME280;9221;42.646;23.380;2023-04-22T03:20:42;94220.66;;;9.10;81.90
3968;BME280;9221;42.646;23.380;2023-04-22T03:23:08;94244.72;;;9.15;81.84
3968;BME280;9221;42.646;23.380;2023-04-22T03:25:34;94231.25;;;9.00;81.95
3968;BME280;9221;42.646;23.380;2023-04-22T03:28:01;94275.78;;;8.84;82.59
3968;BME280;9221;42.646;23.380;2023-04-22T03:30:26;94181.00;;;8.29;82.37
3968;BME280;9221;42.646;23.380;2023-04-22T03:32:51;94253.00;;;8.74;83.02
3968;BME280;9221;42.646;23.380;2023-04-22T03:35:18;94227.91;;;8.62;82.36
3968;BME280;9221;42.646;23.380;2023-04-22T03:37:44;94256.03;;;8.79;82.14
3968;BME280;9221;42.646;23.380;2023-04-22T03:40:09;94251.72;;;8.78;82.72
3968;BME280;9221;42.646;23.380;2023-04-22T03:42:35;94256.91;;;8.70;82.47
3968;BME280;9221;42.646;23.380;2023-04-22T03:45:00;94226.00;;;8.54;82.44
3968;BME280;9221;42.646;23.380;2023-04-22T03:47:26;94244.25;;;8.56;82.79
3968;BME280;9221;42.646;23.380;2023-04-22T03:49:51;94252.88;;;8.38;82.99
3968;BME280;9221;42.646;23.380;2023-04-22T03:52:16;94242.28;;;8.30;83.32
3968;BME280;9221;42.646;23.380;2023-04-22T03:54:42;94139.25;;;7.81;82.72
3968;BME280;9221;42.646;23.380;2023-04-22T03:57:07;94273.31;;;8.44;82.77
3968;BME280;9221;42.646;23.380;2023-04-22T03:59:32;94207.13;;;8.03;83.27
3968;BME280;9221;42.646;23.380;2023-04-22T04:01:58;94285.63;;;8.44;83.38
3968;BME280;9221;42.646;23.380;2023-04-22T04:04:23;94272.19;;;8.57;83.16
3968;BME280;9221;42.646;23.380;2023-04-22T04:06:49;94259.25;;;8.45;82.72
3968;BME280;9221;42.646;23.380;2023-04-22T04:09:14;94291.91;;;8.33;83.24
3968;BME280;9221;42.646;23.380;2023-04-22T04:11:39;94216.38;;;8.07;83.07
3968;BME280;9221;42.646;23.380;2023-04-22T04:14:05;94178.25;;;7.56;82.85
3968;BME280;9221;42.646;23.380;2023-04-22T04:16:30;94203.31;;;7.88;82.45
3968;BME280;9221;42.646;23.380;2023-04-22T04:18:56;94240.81;;;8.18;83.21
3968;BME280;9221;42.646;23.380;2023-04-22T04:21:21;94259.81;;;8.39;82.18
3968;BME280;9221;42.646;23.380;2023-04-22T04:23:47;94294.34;;;8.44;82.37
3968;BME280;9221;42.646;23.380;2023-04-22T04:26:12;94212.22;;;8.05;82.10
3968;BME280;9221;42.646;23.380;2023-04-22T04:28:40;94215.69;;;8.05;82.04
3968;BME280;9221;42.646;23.380;2023-04-22T04:31:06;94277.75;;;8.44;82.23
3968;BME280;9221;42.646;23.380;2023-04-22T04:33:32;94265.31;;;8.36;82.54
3968;BME280;9221;42.646;23.380;2023-04-22T04:35:57;94212.88;;;8.17;81.63
3968;BME280;9221;42.646;23.380;2023-04-22T04:38:23;94226.63;;;8.38;80.95
3968;BME280;9221;42.646;23.380;2023-04-22T04:40:50;94317.25;;;8.90;80.79
3968;BME280;9221;42.646;23.380;2023-04-22T04:43:16;94293.41;;;9.19;80.26
3968;BME280;9221;42.646;23.380;2023-04-22T04:45:41;94334.94;;;9.25;79.67
3968;BME280;9221;42.646;23.380;2023-04-22T04:48:14;94302.28;;;9.18;78.92
3968;BME280;9221;42.646;23.380;2023-04-22T04:50:41;94249.81;;;8.98;79.00
3968;BME280;9221;42.646;23.380;2023-04-22T04:53:07;94231.56;;;8.97;78.42
3968;BME280;9221;42.646;23.380;2023-04-22T04:55:32;94297.09;;;9.44;78.65
3968;BME280;9221;42.646;23.380;2023-04-22T04:57:58;94306.28;;;9.76;78.91
3968;BME280;9221;42.646;23.380;2023-04-22T05:00:23;94321.88;;;9.96;78.26
3968;BME280;9221;42.646;23.380;2023-04-22T05:02:48;94287.47;;;9.71;77.34
3968;BME280;9221;42.646;23.380;2023-04-22T05:05:14;94376.16;;;10.07;76.30
3968;BME280;9221;42.646;23.380;2023-04-22T05:07:39;94191.97;;;9.43;76.74
3968;BME280;9221;42.646;23.380;2023-04-22T05:10:05;94297.75;;;10.27;76.37
3968;BME280;9221;42.646;23.380;2023-04-22T05:12:31;94322.44;;;10.52;76.39
3968;BME280;9221;42.646;23.380;2023-04-22T05:14:56;94350.53;;;10.61;76.48
3968;BME280;9221;42.646;23.380;2023-04-22T05:17:21;94316.56;;;10.58;76.47
3968;BME280;9221;42.646;23.380;2023-04-22T05:19:47;94191.06;;;9.78;76.57
3968;BME280;9221;42.646;23.380;2023-04-22T05:22:12;94200.06;;;9.94;77.12
3968;BME280;9221;42.646;23.380;2023-04-22T05:24:38;94291.56;;;10.36;77.09
3968;BME280;9221;42.646;23.380;2023-04-22T05:27:03;94316.31;;;10.43;78.23
3968;BME280;9221;42.646;23.380;2023-04-22T05:29:28;94307.22;;;10.72;77.61
3968;BME280;9221;42.646;23.380;2023-04-22T05:31:55;94260.06;;;10.61;76.93
3968;BME280;9221;42.646;23.380;2023-04-22T05:34:21;94312.72;;;10.87;76.10
3968;BME280;9221;42.646;23.380;2023-04-22T05:36:46;94324.88;;;11.14;76.29
3968;BME280;9221;42.646;23.380;2023-04-22T05:39:12;94279.97;;;10.98;74.96
3968;BME280;9221;42.646;23.380;2023-04-22T05:41:37;94317.53;;;10.92;75.09
3968;BME280;9221;42.646;23.380;2023-04-22T05:44:03;94247.81;;;10.52;76.55
3968;BME280;9221;42.646;23.380;2023-04-22T05:46:28;94329.75;;;11.01;76.09
3968;BME280;9221;42.646;23.380;2023-04-22T05:48:53;94322.44;;;10.87;75.83
3968;BME280;9221;42.646;23.380;2023-04-22T05:51:20;94214.34;;;10.18;76.52
3968;BME280;9221;42.646;23.380;2023-04-22T05:53:46;94328.06;;;10.92;76.85
3968;BME280;9221;42.646;23.380;2023-04-22T05:56:11;94270.09;;;10.65;76.60
3968;BME280;9221;42.646;23.380;2023-04-22T05:58:37;94321.09;;;11.17;76.42
3968;BME280;9221;42.646;23.380;2023-04-22T06:01:02;94313.38;;;11.32;76.00
3968;BME280;9221;42.646;23.380;2023-04-22T06:03:28;94327.28;;;11.67;74.71
3968;BME280;9221;42.646;23.380;2023-04-22T06:05:54;94266.84;;;11.72;73.79
3968;BME280;9221;42.646;23.380;2023-04-22T06:08:19;94306.97;;;12.33;72.33
3968;BME280;9221;42.646;23.380;2023-04-22T06:10:45;94392.38;;;12.59;71.39
3968;BME280;9221;42.646;23.380;2023-04-22T06:13:10;94312.00;;;12.76;70.74
3968;BME280;9221;42.646;23.380;2023-04-22T06:15:36;94356.53;;;12.56;70.05
3968;BME280;9221;42.646;23.380;2023-04-22T06:18:01;94319.22;;;12.91;69.77
3968;BME280;9221;42.646;23.380;2023-04-22T06:20:27;94317.00;;;13.02;69.78
3968;BME280;9221;42.646;23.380;2023-04-22T06:22:52;94302.50;;;12.90;69.67
3968;BME280;9221;42.646;23.380;2023-04-22T06:25:18;94302.91;;;13.10;69.17
3968;BME280;9221;42.646;23.380;2023-04-22T06:27:43;94310.00;;;13.18;68.96
3968;BME280;9221;42.646;23.380;2023-04-22T06:30:09;94282.50;;;12.96;69.02
3968;BME280;9221;42.646;23.380;2023-04-22T06:32:36;94351.84;;;13.23;68.96
3968;BME280;9221;42.646;23.380;2023-04-22T06:35:01;94278.06;;;12.88;69.11
3968;BME280;9221;42.646;23.380;2023-04-22T06:37:27;94258.78;;;13.02;68.65
3968;BME280;9221;42.646;23.380;2023-04-22T06:39:52;94325.88;;;13.58;68.26
3968;BME280;9221;42.646;23.380;2023-04-22T06:42:18;94334.34;;;13.76;68.15
3968;BME280;9221;42.646;23.380;2023-04-22T06:44:43;94312.69;;;13.73;67.79
3968;BME280;9221;42.646;23.380;2023-04-22T06:47:08;94263.66;;;13.53;68.54
3968;BME280;9221;42.646;23.380;2023-04-22T06:49:34;94331.88;;;13.98;68.50
3968;BME280;9221;42.646;23.380;2023-04-22T06:52:02;94358.03;;;14.01;68.16
3968;BME280;9221;42.646;23.380;2023-04-22T06:54:28;94336.50;;;14.04;68.49
3968;BME280;9221;42.646;23.380;2023-04-22T06:56:54;94319.75;;;14.03;69.38
3968;BME280;9221;42.646;23.380;2023-04-22T06:59:19;94307.41;;;13.96;69.28
3968;BME280;9221;42.646;23.380;2023-04-22T07:01:45;94328.03;;;14.24;69.07
3968;BME280;9221;42.646;23.380;2023-04-22T07:04:10;94308.75;;;13.92;68.02
3968;BME280;9221;42.646;23.380;2023-04-22T07:06:36;94302.50;;;14.22;67.60
3968;BME280;9221;42.646;23.380;2023-04-22T07:09:01;94320.22;;;14.45;67.18
3968;BME280;9221;42.646;23.380;2023-04-22T07:11:27;94357.53;;;14.67;66.64
3968;BME280;9221;42.646;23.380;2023-04-22T07:13:52;94227.13;;;14.02;65.79
3968;BME280;9221;42.646;23.380;2023-04-22T07:16:17;94257.25;;;14.39;65.74
3968;BME280;9221;42.646;23.380;2023-04-22T07:18:43;94338.31;;;14.95;66.04
3968;BME280;9221;42.646;23.380;2023-04-22T07:21:08;94317.44;;;14.92;65.98
3968;BME280;9221;42.646;23.380;2023-04-22T07:23:34;94337.31;;;15.11;65.40
3968;BME280;9221;42.646;23.380;2023-04-22T07:25:59;94322.34;;;15.25;65.18
3968;BME280;9221;42.646;23.380;2023-04-22T07:28:25;94342.50;;;15.34;64.74
3968;BME280;9221;42.646;23.380;2023-04-22T07:30:50;94343.41;;;15.41;64.40
3968;BME280;9221;42.646;23.380;2023-04-22T07:33:16;94276.41;;;15.09;64.56
3968;BME280;9221;42.646;23.380;2023-04-22T07:35:41;94293.63;;;15.13;63.51
3968;BME280;9221;42.646;23.380;2023-04-22T07:38:07;94346.94;;;15.48;62.52
3968;BME280;9221;42.646;23.380;2023-04-22T07:40:32;94336.16;;;15.71;61.88
3968;BME280;9221;42.646;23.380;2023-04-22T07:42:57;94278.31;;;15.52;61.25
3968;BME280;9221;42.646;23.380;2023-04-22T07:45:23;94270.66;;;15.64;61.02
3968;BME280;9221;42.646;23.380;2023-04-22T07:47:48;94289.16;;;15.94;60.54
3968;BME280;9221;42.646;23.380;2023-04-22T07:50:15;94320.91;;;16.45;58.80
3968;BME280;9221;42.646;23.380;2023-04-22T07:52:40;94351.78;;;16.89;56.46
3968;BME280;9221;42.646;23.380;2023-04-22T07:55:06;94264.22;;;16.86;55.20
3968;BME280;9221;42.646;23.380;2023-04-22T07:57:31;94331.16;;;17.53;54.61
3968;BME280;9221;42.646;23.380;2023-04-22T08:00:03;94349.06;;;17.59;54.48
3968;BME280;9221;42.646;23.380;2023-04-22T08:02:29;94326.34;;;17.77;53.38
3968;BME280;9221;42.646;23.380;2023-04-22T08:04:54;94321.47;;;18.01;51.94
3968;BME280;9221;42.646;23.380;2023-04-22T08:07:20;94319.66;;;18.21;51.67
3968;BME280;9221;42.646;23.380;2023-04-22T08:09:45;94326.84;;;18.61;50.69
3968;BME280;9221;42.646;23.380;2023-04-22T08:12:10;94289.47;;;18.54;49.70
3968;BME280;9221;42.646;23.380;2023-04-22T08:14:36;94301.38;;;18.38;50.25
3968;BME280;9221;42.646;23.380;2023-04-22T08:17:01;94351.94;;;18.40;51.46
3968;BME280;9221;42.646;23.380;2023-04-22T08:19:27;94272.63;;;18.20;50.57
3968;BME280;9221;42.646;23.380;2023-04-22T08:21:52;94300.56;;;18.65;50.54
3968;BME280;9221;42.646;23.380;2023-04-22T08:24:17;94351.91;;;18.60;50.15
3968;BME280;9221;42.646;23.380;2023-04-22T08:26:43;94254.69;;;18.94;50.02
3968;BME280;9221;42.646;23.380;2023-04-22T08:29:08;94314.88;;;19.62;47.92
3968;BME280;9221;42.646;23.380;2023-04-22T08:31:34;94309.63;;;19.94;47.77
3968;BME280;9221;42.646;23.380;2023-04-22T08:33:59;94320.56;;;20.18;46.21
3968;BME280;9221;42.646;23.380;2023-04-22T08:36:25;94249.66;;;19.95;46.01
3968;BME280;9221;42.646;23.380;2023-04-22T08:38:52;94307.69;;;20.84;45.40
3968;BME280;9221;42.646;23.380;2023-04-22T08:41:17;94251.56;;;20.89;44.78
3968;BME280;9221;42.646;23.380;2023-04-22T08:43:46;94292.41;;;21.28;43.27
3968;BME280;9221;42.646;23.380;2023-04-22T08:46:12;94234.13;;;20.11;44.73
3968;BME280;9221;42.646;23.380;2023-04-22T08:48:40;94289.22;;;20.76;44.52
3968;BME280;9221;42.646;23.380;2023-04-22T08:51:07;94287.25;;;20.65;44.44
3968;BME280;9221;42.646;23.380;2023-04-22T08:53:33;94273.16;;;20.94;44.84
3968;BME280;9221;42.646;23.380;2023-04-22T08:55:58;94306.84;;;21.27;43.02
3968;BME280;9221;42.646;23.380;2023-04-22T08:58:24;94221.94;;;21.03;42.35
3968;BME280;9221;42.646;23.380;2023-04-22T09:00:54;94309.06;;;21.30;42.31
3968;BME280;9221;42.646;23.380;2023-04-22T09:03:20;94220.19;;;21.27;41.76
3968;BME280;9221;42.646;23.380;2023-04-22T09:05:48;94215.13;;;21.68;41.52
3968;BME280;9221;42.646;23.380;2023-04-22T09:08:15;94266.13;;;22.52;40.80
3968;BME280;9221;42.646;23.380;2023-04-22T09:10:41;94275.69;;;22.48;40.12
3968;BME280;9221;42.646;23.380;2023-04-22T09:13:07;94220.31;;;22.59;39.86
3968;BME280;9221;42.646;23.380;2023-04-22T09:15:33;94264.16;;;22.83;39.57
3968;BME280;9221;42.646;23.380;2023-04-22T09:17:58;94222.84;;;22.89;39.75
3968;BME280;9221;42.646;23.380;2023-04-22T09:20:28;94215.13;;;23.17;37.08
3968;BME280;9221;42.646;23.380;2023-04-22T09:22:55;94266.00;;;23.18;36.52
3968;BME280;9221;42.646;23.380;2023-04-22T09:25:25;94122.59;;;21.58;37.26
3968;BME280;9221;42.646;23.380;2023-04-22T09:27:53;94249.13;;;23.11;36.52
3968;BME280;9221;42.646;23.380;2023-04-22T09:30:35;94268.78;;;23.23;35.84
3968;BME280;9221;42.646;23.380;2023-04-22T09:33:05;94277.72;;;23.93;38.51
3968;BME280;9221;42.646;23.380;2023-04-22T09:35:34;94279.94;;;24.59;36.63
3968;BME280;9221;42.646;23.380;2023-04-22T09:38:06;94227.25;;;24.35;34.61
3968;BME280;9221;42.646;23.380;2023-04-22T09:40:32;94242.16;;;24.08;34.78
3968;BME280;9221;42.646;23.380;2023-04-22T09:43:01;94250.78;;;23.93;34.35
3968;BME280;9221;42.646;23.380;2023-04-22T09:45:29;94250.56;;;23.25;34.30
3968;BME280;9221;42.646;23.380;2023-04-22T09:47:55;94260.41;;;23.20;34.83
3968;BME280;9221;42.646;23.380;2023-04-22T09:50:24;94107.19;;;22.72;34.96
3968;BME280;9221;42.646;23.380;2023-04-22T09:52:58;94242.81;;;23.98;33.93
3968;BME280;9221;42.646;23.380;2023-04-22T09:55:25;94245.75;;;23.56;33.96
3968;BME280;9221;42.646;23.380;2023-04-22T09:57:52;94188.00;;;22.94;33.92
3968;BME280;9221;42.646;23.380;2023-04-22T10:00:19;94232.88;;;22.11;34.18
3968;BME280;9221;42.646;23.380;2023-04-22T10:02:44;94207.09;;;21.19;36.93
3968;BME280;9221;42.646;23.380;2023-04-22T10:05:10;94250.22;;;20.99;39.53
3968;BME280;9221;42.646;23.380;2023-04-22T10:07:38;94225.50;;;21.15;39.07
3968;BME280;9221;42.646;23.380;2023-04-22T10:10:06;94205.38;;;21.06;37.06
3968;BME280;9221;42.646;23.380;2023-04-22T10:12:35;94201.00;;;21.42;36.01
3968;BME280;9221;42.646;23.380;2023-04-22T10:15:04;94260.34;;;21.15;36.75
3968;BME280;9221;42.646;23.380;2023-04-22T10:17:35;94181.38;;;20.81;36.44
3968;BME280;9221;42.646;23.380;2023-04-22T10:20:05;94290.06;;;20.95;36.30
3968;BME280;9221;42.646;23.380;2023-04-22T10:22:33;94175.44;;;19.84;38.02
3968;BME280;9221;42.646;23.380;2023-04-22T10:24:58;94238.44;;;21.18;36.58
3968;BME280;9221;42.646;23.380;2023-04-22T10:27:24;94244.91;;;21.47;35.13
3968;BME280;9221;42.646;23.380;2023-04-22T10:29:49;94178.16;;;21.70;33.08
3968;BME280;9221;42.646;23.380;2023-04-22T10:34:47;94233.06;;;22.40;33.61
3968;BME280;9221;42.646;23.380;2023-04-22T10:37:17;94229.22;;;21.93;33.00
3968;BME280;9221;42.646;23.380;2023-04-22T10:42:32;94266.44;;;21.59;36.32
3968;BME280;9221;42.646;23.380;2023-04-22T10:45:03;94123.00;;;21.43;35.69
3968;BME280;9221;42.646;23.380;2023-04-22T10:47:33;94210.13;;;22.73;35.26
3968;BME280;9221;42.646;23.380;2023-04-22T10:50:19;94232.81;;;23.01;33.60
3968;BME280;9221;42.646;23.380;2023-04-22T10:52:56;94202.25;;;23.19;32.50
3968;BME280;9221;42.646;23.380;2023-04-22T10:55:23;94193.75;;;22.86;33.59
3968;BME280;9221;42.646;23.380;2023-04-22T10:57:50;94186.41;;;23.34;31.52
3968;BME280;9221;42.646;23.380;2023-04-22T11:00:19;94282.50;;;23.62;31.99
3968;BME280;9221;42.646;23.380;2023-04-22T11:02:46;94235.88;;;23.74;31.72
3968;BME280;9221;42.646;23.380;2023-04-22T11:05:23;94240.31;;;23.80;30.78
3968;BME280;9221;42.646;23.380;2023-04-22T11:07:53;94227.16;;;24.46;29.62
3968;BME280;9221;42.646;23.380;2023-04-22T11:10:40;94221.91;;;24.74;28.59
3968;BME280;9221;42.646;23.380;2023-04-22T11:13:24;94228.94;;;24.75;28.03
3968;BME280;9221;42.646;23.380;2023-04-22T11:15:52;94201.84;;;24.30;28.85
3968;BME280;9221;42.646;23.380;2023-04-22T11:18:20;94222.94;;;24.67;28.18
3968;BME280;9221;42.646;23.380;2023-04-22T11:20:47;94198.03;;;24.26;30.62
3968;BME280;9221;42.646;23.380;2023-04-22T11:23:26;94230.59;;;23.79;30.71
3968;BME280;9221;42.646;23.380;2023-04-22T11:25:56;94226.72;;;23.17;32.96
3968;BME280;9221;42.646;23.380;2023-04-22T11:28:22;94266.41;;;23.39;32.64
3968;BME280;9221;42.646;23.380;2023-04-22T11:30:48;94268.16;;;23.45;31.35
3968;BME280;9221;42.646;23.380;2023-04-22T11:33:14;94177.13;;;23.13;31.91
3968;BME280;9221;42.646;23.380;2023-04-22T11:35:40;94225.31;;;23.55;32.22
3968;BME280;9221;42.646;23.380;2023-04-22T11:38:07;94273.16;;;23.53;31.42
3968;BME280;9221;42.646;23.380;2023-04-22T11:40:41;94200.81;;;22.40;33.73
3968;BME280;9221;42.646;23.380;2023-04-22T11:43:08;94234.22;;;22.91;34.49
3968;BME280;9221;42.646;23.380;2023-04-22T11:45:35;94263.22;;;23.13;34.65
3968;BME280;9221;42.646;23.380;2023-04-22T11:48:02;94245.22;;;23.54;32.30
3968;BME280;9221;42.646;23.380;2023-04-22T11:50:30;94194.59;;;22.51;33.87
3968;BME280;9221;42.646;23.380;2023-04-22T11:52:57;94292.28;;;22.45;35.00
3968;BME280;9221;42.646;23.380;2023-04-22T11:58:14;94214.19;;;22.16;34.78
3968;BME280;9221;42.646;23.380;2023-04-22T12:00:44;94224.53;;;22.67;33.35
3968;BME280;9221;42.646;23.380;2023-04-22T12:03:18;94273.59;;;22.97;33.54
3968;BME280;9221;42.646;23.380;2023-04-22T12:05:54;94254.31;;;22.77;33.58
3968;BME280;9221;42.646;23.380;2023-04-22T12:08:22;94295.94;;;22.62;35.08
3968;BME280;9221;42.646;23.380;2023-04-22T12:10:53;94202.84;;;22.14;34.77
3968;BME280;9221;42.646;23.380;2023-04-22T12:13:22;94267.63;;;22.48;34.58
3968;BME280;9221;42.646;23.380;2023-04-22T12:15:52;94264.63;;;22.80;35.19
3968;BME280;9221;42.646;23.380;2023-04-22T12:18:30;94253.75;;;23.51;34.64
3968;BME280;9221;42.646;23.380;2023-04-22T12:21:07;94205.69;;;23.43;33.49
3968;BME280;9221;42.646;23.380;2023-04-22T12:23:46;94263.19;;;23.94;33.68
3968;BME280;9221;42.646;23.380;2023-04-22T12:26:13;94275.75;;;23.48;34.34
3968;BME280;9221;42.646;23.380;2023-04-22T12:28:40;94272.63;;;23.39;33.89
3968;BME280;9221;42.646;23.380;2023-04-22T12:31:06;94261.47;;;23.59;32.88
3968;BME280;9221;42.646;23.380;2023-04-22T12:33:32;94338.69;;;23.71;32.52
3968;BME280;9221;42.646;23.380;2023-04-22T12:35:58;94275.47;;;24.19;31.93
3968;BME280;9221;42.646;23.380;2023-04-22T12:38:23;94217.41;;;23.94;32.19
3968;BME280;9221;42.646;23.380;2023-04-22T12:40:49;94297.25;;;23.72;32.57
3968;BME280;9221;42.646;23.380;2023-04-22T12:43:15;94264.81;;;23.14;34.77
3968;BME280;9221;42.646;23.380;2023-04-22T12:45:41;94278.06;;;22.68;34.21
3968;BME280;9221;42.646;23.380;2023-04-22T12:48:06;94258.28;;;22.39;35.55
3968;BME280;9221;42.646;23.380;2023-04-22T12:50:32;94206.28;;;21.18;37.44
3968;BME280;9221;42.646;23.380;2023-04-22T12:52:57;94278.44;;;21.57;38.02
3968;BME280;9221;42.646;23.380;2023-04-22T12:55:23;94232.75;;;21.45;38.10
3968;BME280;9221;42.646;23.380;2023-04-22T12:57:48;94298.63;;;21.78;38.07
3968;BME280;9221;42.646;23.380;2023-04-22T13:00:18;94248.56;;;21.35;38.31
3968;BME280;9221;42.646;23.380;2023-04-22T13:02:45;94240.84;;;21.75;38.71
3968;BME280;9221;42.646;23.380;2023-04-22T13:05:11;94277.38;;;22.61;37.41
3968;BME280;9221;42.646;23.380;2023-04-22T13:07:37;94313.97;;;23.21;36.43
3968;BME280;9221;42.646;23.380;2023-04-22T13:10:05;94220.88;;;22.25;37.07
3968;BME280;9221;42.646;23.380;2023-04-22T13:12:31;94264.28;;;22.53;37.35
3968;BME280;9221;42.646;23.380;2023-04-22T13:14:56;94193.84;;;21.96;36.44
3968;BME280;9221;42.646;23.380;2023-04-22T13:17:22;94276.66;;;22.42;37.13
3968;BME280;9221;42.646;23.380;2023-04-22T13:19:47;94311.94;;;22.15;35.50